createdAt,value
2017-07-21T00:01:03.119Z,20.37
2017-07-21T00:03:31.410Z,20.36
2017-07-21T00:06:00.121Z,20.33
2017-07-21T00:08:28.202Z,20.33
2017-07-21T00:10:56.942Z,20.33
2017-07-21T00:13:25.878Z,20.32
2017-07-21T00:15:53.998Z,20.32
2017-07-21T00:18:22.461Z,20.33
2017-07-21T00:20:50.843Z,20.34
2017-07-21T00:23:20.399Z,20.34
2017-07-21T00:25:48.851Z,20.34
2017-07-21T00:28:18.617Z,20.32
2017-07-21T00:30:47.041Z,20.32
2017-07-21T00:33:16.723Z,20.25
2017-07-21T00:35:45.596Z,20.26
2017-07-21T00:38:14.015Z,20.26
2017-07-21T00:40:42.383Z,20.24
2017-07-21T00:43:11.292Z,20.21
2017-07-21T00:45:39.979Z,20.17
2017-07-21T00:48:08.233Z,20.14
2017-07-21T00:50:37.074Z,20.14
2017-07-21T00:53:05.438Z,20.15
2017-07-21T00:55:33.967Z,20.09
2017-07-21T00:58:02.476Z,20.07
2017-07-21T01:00:30.935Z,20.05
2017-07-21T01:02:59.149Z,20.04
2017-07-21T01:05:27.911Z,20.02
2017-07-21T01:07:56.283Z,19.87
2017-07-21T01:10:24.998Z,19.90
2017-07-21T01:12:53.435Z,19.76
2017-07-21T01:15:21.499Z,19.92
2017-07-21T01:17:50.018Z,19.70
2017-07-21T01:20:21.059Z,19.62
2017-07-21T01:22:49.431Z,19.69
2017-07-21T01:25:20.043Z,19.72
2017-07-21T01:27:48.633Z,19.81
2017-07-21T01:30:20.405Z,19.80
2017-07-21T01:32:48.973Z,19.75
2017-07-21T01:35:19.454Z,19.78
2017-07-21T01:37:48.301Z,19.74
2017-07-21T01:40:18.827Z,19.80
2017-07-21T01:42:47.115Z,19.79
2017-07-21T01:45:16.666Z,19.82
2017-07-21T01:47:45.280Z,19.78
2017-07-21T01:50:13.382Z,19.82
2017-07-21T01:52:41.866Z,19.74
2017-07-21T01:55:10.174Z,19.77
2017-07-21T01:57:38.734Z,19.70
2017-07-21T02:00:08.998Z,19.71
2017-07-21T02:02:37.334Z,19.73
2017-07-21T02:05:05.523Z,19.74
2017-07-21T02:07:34.426Z,19.73
2017-07-21T02:10:02.957Z,19.78
2017-07-21T02:12:31.567Z,19.72
2017-07-21T02:14:59.946Z,19.71
2017-07-21T02:17:28.105Z,19.65
2017-07-21T02:19:56.564Z,19.68
2017-07-21T02:22:25.367Z,19.62
2017-07-21T02:24:53.964Z,19.58
2017-07-21T02:27:22.515Z,19.55
2017-07-21T02:29:50.889Z,19.40
2017-07-21T02:32:21.199Z,19.40
2017-07-21T02:34:49.845Z,19.36
2017-07-21T02:37:20.536Z,19.38
2017-07-21T02:39:49.136Z,19.29
2017-07-21T02:42:19.242Z,19.22
2017-07-21T02:44:47.936Z,19.25
2017-07-21T02:47:18.868Z,19.16
2017-07-21T02:49:46.933Z,19.23
2017-07-21T02:52:15.118Z,19.20
2017-07-21T02:54:43.911Z,19.15
2017-07-21T02:57:12.279Z,19.10
2017-07-21T02:59:40.795Z,19.13
2017-07-21T03:02:09.478Z,19.10
2017-07-21T03:04:37.729Z,19.06
2017-07-21T03:07:05.834Z,19.03
2017-07-21T03:09:34.271Z,19.00
2017-07-21T03:12:03.273Z,18.99
2017-07-21T03:14:31.869Z,18.93
2017-07-21T03:17:00.185Z,18.97
2017-07-21T03:19:28.746Z,18.94
2017-07-21T03:21:57.132Z,18.94
2017-07-21T03:24:25.623Z,18.87
2017-07-21T03:26:54.052Z,18.84
2017-07-21T03:29:23.034Z,18.85
2017-07-21T03:31:51.642Z,18.81
2017-07-21T03:34:21.663Z,18.83
2017-07-21T03:36:50.332Z,18.79
2017-07-21T03:39:20.939Z,18.82
2017-07-21T03:41:49.340Z,18.79
2017-07-21T03:44:20.587Z,18.86
2017-07-21T03:46:49.068Z,18.88
2017-07-21T03:49:19.607Z,18.93
2017-07-21T03:51:48.271Z,18.97
2017-07-21T03:54:18.608Z,18.89
2017-07-21T03:56:46.995Z,18.88
2017-07-21T03:59:15.279Z,18.97
2017-07-21T04:01:44.328Z,18.93
2017-07-21T04:04:12.736Z,18.93
2017-07-21T04:06:40.855Z,19.05
2017-07-21T04:09:09.787Z,18.98
2017-07-21T04:11:38.190Z,18.99
2017-07-21T04:14:06.446Z,18.98
2017-07-21T04:16:35.036Z,18.93
2017-07-21T04:19:03.719Z,18.94
2017-07-21T04:21:32.216Z,18.80
2017-07-21T04:24:00.395Z,18.80
2017-07-21T04:26:28.962Z,18.78
2017-07-21T04:28:57.509Z,18.84
2017-07-21T04:31:26.019Z,18.75
2017-07-21T04:33:54.402Z,18.72
2017-07-21T04:36:22.657Z,18.77
2017-07-21T04:38:51.570Z,18.84
2017-07-21T04:41:21.480Z,18.83
2017-07-21T04:43:50.070Z,18.82
2017-07-21T04:46:21.644Z,18.85
2017-07-21T04:48:49.815Z,18.93
2017-07-21T04:51:20.537Z,18.95
2017-07-21T04:53:49.503Z,18.96
2017-07-21T04:56:21.271Z,19.00
2017-07-21T04:58:49.427Z,19.00
2017-07-21T05:01:20.985Z,18.90
2017-07-21T05:03:49.345Z,19.00
2017-07-21T05:06:20.461Z,19.03
2017-07-21T05:08:49.082Z,19.07
2017-07-21T05:11:19.387Z,19.02
2017-07-21T05:13:47.714Z,19.05
2017-07-21T05:16:17.191Z,19.06
2017-07-21T05:18:45.600Z,19.08
2017-07-21T05:21:13.731Z,19.15
2017-07-21T05:23:42.131Z,19.22
2017-07-21T05:26:10.514Z,19.27
2017-07-21T05:28:38.791Z,19.33
2017-07-21T05:31:07.554Z,19.34
2017-07-21T05:33:35.852Z,19.28
2017-07-21T05:36:04.144Z,19.22
2017-07-21T05:38:32.868Z,19.05
2017-07-21T05:41:01.416Z,19.03
2017-07-21T05:43:29.691Z,19.07
2017-07-21T05:45:58.232Z,19.05
2017-07-21T05:48:26.274Z,19.11
2017-07-21T05:50:55.004Z,19.22
2017-07-21T05:53:25.078Z,19.25
2017-07-21T05:55:53.469Z,19.25
2017-07-21T05:58:21.986Z,19.38
2017-07-21T06:00:50.426Z,19.34
2017-07-21T06:03:20.854Z,19.47
2017-07-21T06:05:48.986Z,19.45
2017-07-21T06:08:19.468Z,19.61
2017-07-21T06:10:47.671Z,19.73
2017-07-21T06:13:18.403Z,19.77
2017-07-21T06:15:46.775Z,19.86
2017-07-21T06:18:14.956Z,19.85
2017-07-21T06:20:43.088Z,19.84
2017-07-21T06:23:11.456Z,19.90
2017-07-21T06:25:39.899Z,20.07
2017-07-21T06:28:08.074Z,19.98
2017-07-21T06:30:36.630Z,19.91
2017-07-21T06:33:05.028Z,20.08
2017-07-21T06:35:33.206Z,20.12
2017-07-21T06:38:01.902Z,19.99
2017-07-21T06:40:29.942Z,20.19
2017-07-21T06:42:58.527Z,20.36
2017-07-21T06:45:26.987Z,20.09
2017-07-21T06:47:55.074Z,20.13
2017-07-21T06:50:23.573Z,20.20
2017-07-21T06:52:52.579Z,19.90
2017-07-21T06:55:20.626Z,19.74
2017-07-21T06:57:48.904Z,20.11
2017-07-21T07:00:18.732Z,20.28
2017-07-21T07:02:47.219Z,20.12
2017-07-21T07:05:15.283Z,19.95
2017-07-21T07:07:44.259Z,20.75
2017-07-21T07:10:12.314Z,20.71
2017-07-21T07:12:40.378Z,20.46
2017-07-21T07:17:46.490Z,21.20
2017-07-21T07:20:14.822Z,20.79
2017-07-21T07:22:42.894Z,20.91
2017-07-21T07:25:11.100Z,20.81
2017-07-21T07:27:40.062Z,20.41
2017-07-21T07:30:09.726Z,20.39
2017-07-21T07:32:37.879Z,20.33
2017-07-21T07:35:06.938Z,20.40
2017-07-21T07:37:35.360Z,20.94
2017-07-21T07:40:03.626Z,21.55
2017-07-21T07:42:32.617Z,21.98
2017-07-21T07:45:01.193Z,22.20
2017-07-21T07:47:29.322Z,22.93
2017-07-21T07:49:58.378Z,23.13
2017-07-21T07:52:26.663Z,23.11
2017-07-21T07:54:55.014Z,23.63
2017-07-21T07:57:23.920Z,23.88
2017-07-21T07:59:52.386Z,24.13
2017-07-21T08:02:21.122Z,24.29
2017-07-21T08:04:49.449Z,24.51
2017-07-21T08:07:19.467Z,24.54
2017-07-21T08:09:47.534Z,24.46
2017-07-21T08:12:18.261Z,23.10
2017-07-21T08:14:46.977Z,23.09
2017-07-21T08:17:15.363Z,23.01
2017-07-21T08:19:44.088Z,22.92
2017-07-21T08:22:12.134Z,22.74
2017-07-21T08:24:40.218Z,22.58
2017-07-21T08:27:08.653Z,22.62
2017-07-21T08:29:36.762Z,23.52
2017-07-21T08:32:05.090Z,23.37
2017-07-21T08:34:33.723Z,23.59
2017-07-21T08:37:01.903Z,23.53
2017-07-21T08:39:30.116Z,23.39
2017-07-21T08:41:58.490Z,22.29
2017-07-21T08:44:26.601Z,22.69
2017-07-21T08:46:56.262Z,22.79
2017-07-21T08:49:24.652Z,22.56
2017-07-21T08:51:52.775Z,22.81
2017-07-21T08:54:20.893Z,23.19
2017-07-21T08:56:50.504Z,23.16
2017-07-21T08:59:20.015Z,23.82
2017-07-21T09:01:48.089Z,23.20
2017-07-21T09:04:17.842Z,23.96
2017-07-21T09:06:45.901Z,23.41
2017-07-21T09:09:13.975Z,23.26
2017-07-21T09:11:42.302Z,22.55
2017-07-21T09:14:10.419Z,22.21
2017-07-21T09:16:38.506Z,22.30
2017-07-21T09:19:07.557Z,22.53
2017-07-21T09:21:35.622Z,22.41
2017-07-21T09:24:03.723Z,22.34
2017-07-21T09:26:32.083Z,22.52
2017-07-21T09:29:00.125Z,22.74
2017-07-21T09:31:28.866Z,22.35
2017-07-21T09:33:57.446Z,22.55
2017-07-21T09:36:25.889Z,22.92
2017-07-21T09:38:53.926Z,23.10
2017-07-21T09:41:22.278Z,23.24
2017-07-21T09:43:50.642Z,22.76
2017-07-21T09:46:19.754Z,23.39
2017-07-21T09:48:48.121Z,24.25
2017-07-21T09:51:17.014Z,25.21
2017-07-21T09:53:45.273Z,25.64
2017-07-21T09:56:13.817Z,25.66
2017-07-21T09:58:41.885Z,25.78
2017-07-21T10:01:10.460Z,24.67
2017-07-21T10:03:38.798Z,24.74
2017-07-21T10:06:06.968Z,25.21
2017-07-21T10:08:35.051Z,26.01
2017-07-21T10:11:05.058Z,26.54
2017-07-21T10:13:33.229Z,25.87
2017-07-21T10:16:01.653Z,25.83
2017-07-21T10:18:30.023Z,25.26
2017-07-21T10:20:58.087Z,24.87
2017-07-21T10:23:26.155Z,25.66
2017-07-21T10:25:55.318Z,25.97
2017-07-21T10:28:23.459Z,26.57
2017-07-21T10:30:51.549Z,26.88
2017-07-21T10:33:21.006Z,25.60
2017-07-21T10:35:49.587Z,24.76
2017-07-21T10:38:18.547Z,25.13
2017-07-21T10:40:46.881Z,25.86
2017-07-21T10:43:14.970Z,25.88
2017-07-21T10:45:43.051Z,25.07
2017-07-21T10:48:11.379Z,25.83
2017-07-21T10:50:39.762Z,26.49
2017-07-21T10:53:07.875Z,26.22
2017-07-21T10:55:36.316Z,25.81
2017-07-21T10:58:04.455Z,26.15
2017-07-21T11:00:32.538Z,27.46
2017-07-21T11:03:00.918Z,27.19
2017-07-21T11:05:28.978Z,27.17
2017-07-21T11:07:57.041Z,27.51
2017-07-21T11:10:25.401Z,28.05
2017-07-21T11:12:53.459Z,27.10
2017-07-21T11:15:21.503Z,27.43
2017-07-21T11:17:49.886Z,27.58
2017-07-21T11:20:19.386Z,28.84
2017-07-21T11:22:47.471Z,27.57
2017-07-21T11:25:15.900Z,29.92
2017-07-21T11:27:43.986Z,30.44
2017-07-21T11:30:12.098Z,30.89
2017-07-21T11:32:40.560Z,29.81
2017-07-21T11:35:08.647Z,28.68
2017-07-21T11:37:36.708Z,29.40
2017-07-21T11:40:05.082Z,29.54
2017-07-21T11:42:33.489Z,30.55
2017-07-21T11:45:01.948Z,29.99
2017-07-21T11:47:30.709Z,31.01
2017-07-21T11:49:58.959Z,28.25
2017-07-21T11:52:27.000Z,27.03
2017-07-21T11:54:55.323Z,27.80
2017-07-21T11:57:23.633Z,27.22
2017-07-21T11:59:51.722Z,26.25
2017-07-21T12:02:21.851Z,26.82
2017-07-21T12:04:49.902Z,26.44
2017-07-21T12:07:19.326Z,26.10
2017-07-21T12:09:47.762Z,26.29
2017-07-21T12:12:16.774Z,25.78
2017-07-21T12:14:44.890Z,25.90
2017-07-21T12:17:13.248Z,25.62
2017-07-21T12:19:41.367Z,25.63
2017-07-21T12:22:09.502Z,25.99
2017-07-21T12:24:38.494Z,26.76
2017-07-21T12:27:06.903Z,27.01
2017-07-21T12:29:35.734Z,26.85
2017-07-21T12:32:04.095Z,26.65
2017-07-21T12:34:32.174Z,26.49
2017-07-21T12:37:00.262Z,26.29
2017-07-21T12:39:28.569Z,26.52
2017-07-21T12:41:56.683Z,25.69
2017-07-21T12:44:24.742Z,25.35
2017-07-21T12:46:53.124Z,25.86
2017-07-21T12:49:21.226Z,25.73
2017-07-21T12:51:49.318Z,25.50
2017-07-21T12:54:17.666Z,25.82
2017-07-21T12:56:45.752Z,26.84
2017-07-21T12:59:13.820Z,26.76
2017-07-21T13:01:42.201Z,27.03
2017-07-21T13:04:10.274Z,27.87
2017-07-21T13:06:38.731Z,28.10
2017-07-21T13:09:07.915Z,28.34
2017-07-21T13:11:36.007Z,28.10
2017-07-21T13:14:04.227Z,28.94
2017-07-21T13:16:32.571Z,29.46
2017-07-21T13:19:00.638Z,29.28
2017-07-21T13:21:28.743Z,30.72
2017-07-21T13:23:58.370Z,30.45
2017-07-21T13:26:26.494Z,30.41
2017-07-21T13:28:54.551Z,28.90
2017-07-21T13:31:22.882Z,28.84
2017-07-21T13:33:51.082Z,28.59
2017-07-21T13:36:20.179Z,28.21
2017-07-21T13:38:48.546Z,28.01
2017-07-21T13:41:17.635Z,27.88
2017-07-21T13:43:45.751Z,27.28
2017-07-21T13:46:14.178Z,27.30
2017-07-21T13:48:42.284Z,27.32
2017-07-21T13:51:10.367Z,26.89
2017-07-21T13:53:39.326Z,27.88
2017-07-21T13:56:07.404Z,27.35
2017-07-21T13:58:35.451Z,27.88
2017-07-21T14:01:03.821Z,28.57
2017-07-21T14:03:31.886Z,29.13
2017-07-21T14:05:59.953Z,30.11
2017-07-21T14:08:28.506Z,29.92
2017-07-21T14:10:57.282Z,29.60
2017-07-21T14:13:25.310Z,29.35
2017-07-21T14:15:53.651Z,28.34
2017-07-21T14:18:21.727Z,28.38
2017-07-21T14:20:49.805Z,29.42
2017-07-21T14:23:19.421Z,30.02
2017-07-21T14:25:47.496Z,30.55
2017-07-21T14:28:16.222Z,29.55
2017-07-21T14:30:44.695Z,29.99
2017-07-21T14:33:12.860Z,30.01
2017-07-21T14:35:41.067Z,30.23
2017-07-21T14:38:09.434Z,29.64
2017-07-21T14:40:37.736Z,30.15
2017-07-21T14:43:05.854Z,29.80
2017-07-21T14:45:34.259Z,29.81
2017-07-21T14:48:02.341Z,30.13
2017-07-21T14:50:30.405Z,30.37
2017-07-21T14:52:58.748Z,29.46
2017-07-21T14:55:27.069Z,29.80
2017-07-21T14:57:55.114Z,29.27
2017-07-21T15:00:23.484Z,29.49
2017-07-21T15:02:51.554Z,29.95
2017-07-21T15:05:20.027Z,30.06
2017-07-21T15:07:48.351Z,30.51
2017-07-21T15:10:17.887Z,30.02
2017-07-21T15:12:45.934Z,29.65
2017-07-21T15:15:14.278Z,29.66
2017-07-21T15:17:42.335Z,28.98
2017-07-21T15:20:10.391Z,28.90
2017-07-21T15:22:38.736Z,28.73
2017-07-21T15:25:06.778Z,28.53
2017-07-21T15:27:34.880Z,28.73
2017-07-21T15:30:03.972Z,29.26
2017-07-21T15:32:32.146Z,29.17
2017-07-21T15:35:00.222Z,28.92
2017-07-21T15:37:28.603Z,30.06
2017-07-21T15:39:56.678Z,29.03
2017-07-21T15:42:24.734Z,29.67
2017-07-21T15:44:53.182Z,29.51
2017-07-21T15:47:21.430Z,29.99
2017-07-21T15:49:49.723Z,29.97
2017-07-21T15:52:19.030Z,30.03
2017-07-21T15:54:47.227Z,29.72
2017-07-21T15:57:15.742Z,29.76
2017-07-21T15:59:44.117Z,30.18
2017-07-21T16:02:12.184Z,29.73
2017-07-21T16:04:40.235Z,30.16
2017-07-21T16:07:08.559Z,29.92
2017-07-21T16:09:36.618Z,29.40
2017-07-21T16:12:04.762Z,29.70
2017-07-21T16:14:33.114Z,28.96
2017-07-21T16:17:01.155Z,28.74
2017-07-21T16:19:29.223Z,28.64
2017-07-21T16:21:57.546Z,28.52
2017-07-21T16:24:25.751Z,28.91
2017-07-21T16:26:53.803Z,28.92
2017-07-21T16:29:22.122Z,29.03
2017-07-21T16:31:50.199Z,28.86
2017-07-21T16:34:19.702Z,29.12
2017-07-21T16:36:48.041Z,29.19
2017-07-21T16:39:17.019Z,29.09
2017-07-21T16:41:45.126Z,29.22
2017-07-21T16:44:13.479Z,29.12
2017-07-21T16:46:41.579Z,28.82
2017-07-21T16:49:09.770Z,29.25
2017-07-21T16:51:38.150Z,29.03
2017-07-21T16:54:06.591Z,29.41
2017-07-21T16:56:34.691Z,29.06
2017-07-21T16:59:03.034Z,29.17
2017-07-21T17:01:31.491Z,29.48
2017-07-21T17:03:59.905Z,29.95
2017-07-21T17:06:28.748Z,29.77
2017-07-21T17:08:56.826Z,29.63
2017-07-21T17:11:24.887Z,29.26
2017-07-21T17:13:53.207Z,29.23
2017-07-21T17:16:21.242Z,28.84
2017-07-21T17:18:49.324Z,29.06
2017-07-21T17:21:18.963Z,29.06
2017-07-21T17:23:47.092Z,29.15
2017-07-21T17:26:15.295Z,29.06
2017-07-21T17:28:43.667Z,28.21
2017-07-21T17:31:11.846Z,28.39
2017-07-21T17:33:39.903Z,28.24
2017-07-21T17:36:08.238Z,28.31
2017-07-21T17:38:36.355Z,28.16
2017-07-21T17:41:04.419Z,28.00
2017-07-21T17:43:32.799Z,28.37
2017-07-21T17:46:00.867Z,28.82
2017-07-21T17:48:28.954Z,28.74
2017-07-21T17:50:57.304Z,28.66
2017-07-21T17:53:25.366Z,28.61
2017-07-21T17:55:53.464Z,28.46
2017-07-21T17:58:21.843Z,28.52
2017-07-21T18:00:49.945Z,28.06
2017-07-21T18:03:18.863Z,28.18
2017-07-21T18:05:47.209Z,27.88
2017-07-21T18:08:15.288Z,28.03
2017-07-21T18:10:43.376Z,28.02
2017-07-21T18:13:11.738Z,27.75
2017-07-21T18:15:39.830Z,27.66
2017-07-21T18:18:08.006Z,27.61
2017-07-21T18:20:36.404Z,27.67
2017-07-21T18:23:04.472Z,28.02
2017-07-21T18:25:32.535Z,27.32
2017-07-21T18:28:00.927Z,27.24
2017-07-21T18:30:29.039Z,27.09
2017-07-21T18:32:57.104Z,27.18
2017-07-21T18:35:25.462Z,26.89
2017-07-21T18:37:53.544Z,26.62
2017-07-21T18:40:21.958Z,26.16
2017-07-21T18:42:50.298Z,25.89
2017-07-21T18:45:20.487Z,25.60
2017-07-21T18:47:49.823Z,25.60
2017-07-21T18:50:19.938Z,25.66
2017-07-21T18:52:48.062Z,25.50
2017-07-21T18:55:16.874Z,25.50
2017-07-21T18:57:45.255Z,25.32
2017-07-21T19:00:13.780Z,25.12
2017-07-21T19:02:41.842Z,25.01
2017-07-21T19:05:10.190Z,25.12
2017-07-21T19:07:38.264Z,25.21
2017-07-21T19:10:06.377Z,25.17
2017-07-21T19:12:35.972Z,25.21
2017-07-21T19:15:04.203Z,25.21
2017-07-21T19:17:32.287Z,25.24
2017-07-21T19:20:00.707Z,25.18
2017-07-21T19:22:30.118Z,25.05
2017-07-21T19:24:58.710Z,24.99
2017-07-21T19:27:27.138Z,24.90
2017-07-21T19:29:55.246Z,24.84
2017-07-21T19:32:24.026Z,24.77
2017-07-21T19:34:52.472Z,24.67
2017-07-21T19:37:21.139Z,24.58
2017-07-21T19:39:49.326Z,24.47
2017-07-21T19:42:19.379Z,24.42
2017-07-21T19:44:47.595Z,24.38
2017-07-21T19:47:15.724Z,24.27
2017-07-21T19:49:44.103Z,24.25
2017-07-21T19:52:12.234Z,24.18
2017-07-21T19:54:40.301Z,24.17
2017-07-21T19:57:08.736Z,24.08
2017-07-21T19:59:40.156Z,24.02
2017-07-21T20:02:08.235Z,23.96
2017-07-21T20:04:36.581Z,23.93
2017-07-21T20:07:04.638Z,23.84
2017-07-21T20:09:32.746Z,23.76
2017-07-21T20:12:01.140Z,23.70
2017-07-21T20:14:29.230Z,23.59
2017-07-21T20:16:57.910Z,23.53
2017-07-21T20:19:26.264Z,23.51
2017-07-21T20:21:54.727Z,23.42
2017-07-21T20:24:22.843Z,23.40
2017-07-21T20:26:51.208Z,23.43
2017-07-21T20:29:20.842Z,23.36
2017-07-21T20:31:48.903Z,23.37
2017-07-21T20:34:18.134Z,23.36
2017-07-21T20:36:46.193Z,22.87
2017-07-21T20:39:14.271Z,22.74
2017-07-21T20:41:42.919Z,22.75
2017-07-21T20:44:10.970Z,22.64
2017-07-21T20:46:39.046Z,22.77
2017-07-21T20:49:07.405Z,22.82
2017-07-21T20:51:36.075Z,22.84
2017-07-21T20:54:04.179Z,22.77
2017-07-21T20:56:32.606Z,22.42
2017-07-21T20:59:00.764Z,22.15
2017-07-21T21:01:28.880Z,22.10
2017-07-21T21:03:57.321Z,22.04
2017-07-21T21:06:25.487Z,22.08
2017-07-21T21:08:53.609Z,22.17
2017-07-21T21:11:22.898Z,22.29
2017-07-21T21:13:51.022Z,22.31
2017-07-21T21:16:20.616Z,22.28
2017-07-21T21:18:49.022Z,22.20
2017-07-21T21:21:18.476Z,22.10
2017-07-21T21:23:46.674Z,22.12
2017-07-21T21:26:15.068Z,22.08
2017-07-21T21:28:43.184Z,22.08
2017-07-21T21:31:11.406Z,22.05
2017-07-21T21:33:40.334Z,22.03
2017-07-21T21:36:08.870Z,21.99
2017-07-21T21:38:37.016Z,21.90
2017-07-21T21:41:05.455Z,21.88
2017-07-21T21:43:33.591Z,21.73
2017-07-21T21:46:01.667Z,21.48
2017-07-21T21:48:30.128Z,21.56
2017-07-21T21:50:58.280Z,21.66
2017-07-21T21:53:26.394Z,21.59
2017-07-21T21:55:54.779Z,21.58
2017-07-21T21:58:22.847Z,21.55
2017-07-21T22:00:50.938Z,21.55
2017-07-21T22:03:22.516Z,21.56
2017-07-21T22:05:50.635Z,21.46
2017-07-21T22:08:19.852Z,21.43
2017-07-21T22:10:51.411Z,21.36
2017-07-21T22:13:21.276Z,21.37
2017-07-21T22:15:55.734Z,21.32
2017-07-21T22:18:24.500Z,21.07
2017-07-21T22:20:52.962Z,21.19
2017-07-21T22:23:21.039Z,21.16
2017-07-21T22:25:49.540Z,20.93
2017-07-21T22:28:19.786Z,20.93
2017-07-21T22:30:48.090Z,21.05
2017-07-21T22:33:17.522Z,21.15
2017-07-21T22:35:45.766Z,21.16
2017-07-21T22:38:13.858Z,21.17
2017-07-21T22:40:42.269Z,21.20
2017-07-21T22:43:10.383Z,21.17
2017-07-21T22:45:38.898Z,21.18
2017-07-21T22:48:07.251Z,21.17
2017-07-21T22:50:35.967Z,21.15
2017-07-21T22:53:04.824Z,21.16
2017-07-21T22:55:34.472Z,21.11
2017-07-21T22:58:07.147Z,21.08
2017-07-21T23:00:36.319Z,21.03
2017-07-21T23:03:08.996Z,21.00
2017-07-21T23:05:40.519Z,21.02
2017-07-21T23:08:10.376Z,21.07
2017-07-21T23:10:43.071Z,21.11
2017-07-21T23:13:11.468Z,21.11
2017-07-21T23:15:39.932Z,21.06
2017-07-21T23:18:08.371Z,21.07
2017-07-21T23:20:36.466Z,20.88
2017-07-21T23:23:05.054Z,20.66
2017-07-21T23:25:33.363Z,20.54
2017-07-21T23:28:01.433Z,20.47
2017-07-21T23:30:29.871Z,20.25
2017-07-21T23:32:58.551Z,20.17
2017-07-21T23:35:26.591Z,20.09
2017-07-21T23:37:55.196Z,20.07
2017-07-21T23:40:23.546Z,20.09
2017-07-21T23:42:51.650Z,20.08
2017-07-21T23:45:20.456Z,19.76
2017-07-21T23:47:48.783Z,19.87
2017-07-21T23:50:18.595Z,19.90
2017-07-21T23:52:47.334Z,19.73
2017-07-21T23:55:15.698Z,19.62
2017-07-21T23:57:43.859Z,19.77
